sensor_id;sensor_type;location;lat;lon;timestamp;P1;durP1;ratioP1;P2;durP2;ratioP2
45033;SDS011;30771;47.988;-4.186;2023-04-24T00:00:23;19.75;;;5.18;;
45033;SDS011;30771;47.988;-4.186;2023-04-24T00:02:49;19.13;;;5.15;;
45033;SDS011;30771;47.988;-4.186;2023-04-24T00:05:15;23.98;;;5.00;;
45033;SDS011;30771;47.988;-4.186;2023-04-24T00:07:42;24.58;;;5.75;;
45033;SDS011;30771;47.988;-4.186;2023-04-24T00:10:08;21.17;;;5.60;;
45033;SDS011;30771;47.988;-4.186;2023-04-24T00:12:34;20.85;;;5.43;;
45033;SDS011;30771;47.988;-4.186;2023-04-24T00:15:00;24.45;;;5.20;;
45033;SDS011;30771;47.988;-4.186;2023-04-24T00:17:26;29.33;;;5.18;;
45033;SDS011;30771;47.988;-4.186;2023-04-24T00:19:52;21.40;;;5.85;;
45033;SDS011;30771;47.988;-4.186;2023-04-24T00:22:23;24.13;;;5.30;;
45033;SDS011;30771;47.988;-4.186;2023-04-24T00:24:49;19.30;;;5.07;;
45033;SDS011;30771;47.988;-4.186;2023-04-24T00:27:14;20.75;;;5.50;;
45033;SDS011;30771;47.988;-4.186;2023-04-24T00:29:40;19.92;;;5.28;;
45033;SDS011;30771;47.988;-4.186;2023-04-24T00:32:05;20.92;;;5.38;;
45033;SDS011;30771;47.988;-4.186;2023-04-24T00:34:30;19.42;;;5.50;;
45033;SDS011;30771;47.988;-4.186;2023-04-24T00:36:57;23.42;;;5.70;;
45033;SDS011;30771;47.988;-4.186;2023-04-24T00:39:23;15.10;;;5.15;;
45033;SDS011;30771;47.988;-4.186;2023-04-24T00:41:48;24.23;;;4.88;;
45033;SDS011;30771;47.988;-4.186;2023-04-24T00:44:15;21.95;;;5.38;;
45033;SDS011;30771;47.988;-4.186;2023-04-24T00:46:42;24.20;;;5.25;;
45033;SDS011;30771;47.988;-4.186;2023-04-24T00:49:07;23.42;;;5.88;;
45033;SDS011;30771;47.988;-4.186;2023-04-24T00:51:33;30.88;;;5.18;;
45033;SDS011;30771;47.988;-4.186;2023-04-24T00:53:59;22.08;;;5.38;;
45033;SDS011;30771;47.988;-4.186;2023-04-24T00:56:25;19.20;;;4.85;;
45033;SDS011;30771;47.988;-4.186;2023-04-24T00:58:51;22.23;;;5.45;;
45033;SDS011;30771;47.988;-4.186;2023-04-24T01:01:20;22.70;;;6.05;;
45033;SDS011;30771;47.988;-4.186;2023-04-24T01:03:46;21.13;;;6.03;;
45033;SDS011;30771;47.988;-4.186;2023-04-24T01:06:14;25.52;;;5.50;;
45033;SDS011;30771;47.988;-4.186;2023-04-24T01:08:40;15.80;;;5.00;;
45033;SDS011;30771;47.988;-4.186;2023-04-24T01:11:06;21.83;;;5.55;;
45033;SDS011;30771;47.988;-4.186;2023-04-24T01:13:33;20.33;;;5.20;;
45033;SDS011;30771;47.988;-4.186;2023-04-24T01:15:58;16.83;;;5.00;;
45033;SDS011;30771;47.988;-4.186;2023-04-24T01:18:25;24.15;;;5.15;;
45033;SDS011;30771;47.988;-4.186;2023-04-24T01:20:53;24.73;;;5.05;;
45033;SDS011;30771;47.988;-4.186;2023-04-24T01:23:21;24.35;;;6.88;;
45033;SDS011;30771;47.988;-4.186;2023-04-24T01:25:47;23.80;;;5.28;;
45033;SDS011;30771;47.988;-4.186;2023-04-24T01:28:14;25.08;;;5.75;;
45033;SDS011;30771;47.988;-4.186;2023-04-24T01:30:39;25.67;;;5.15;;
45033;SDS011;30771;47.988;-4.186;2023-04-24T01:33:05;21.13;;;5.53;;
45033;SDS011;30771;47.988;-4.186;2023-04-24T01:35:30;21.70;;;5.57;;
45033;SDS011;30771;47.988;-4.186;2023-04-24T01:37:56;21.15;;;5.40;;
45033;SDS011;30771;47.988;-4.186;2023-04-24T01:40:22;17.83;;;5.30;;
45033;SDS011;30771;47.988;-4.186;2023-04-24T01:42:47;21.58;;;5.18;;
45033;SDS011;30771;47.988;-4.186;2023-04-24T01:45:13;24.80;;;5.68;;
45033;SDS011;30771;47.988;-4.186;2023-04-24T01:47:38;24.30;;;5.28;;
45033;SDS011;30771;47.988;-4.186;2023-04-24T01:50:04;19.10;;;5.47;;
45033;SDS011;30771;47.988;-4.186;2023-04-24T01:52:30;20.70;;;5.50;;
45033;SDS011;30771;47.988;-4.186;2023-04-24T01:55:01;23.33;;;5.60;;
45033;SDS011;30771;47.988;-4.186;2023-04-24T01:57:29;22.50;;;5.20;;
45033;SDS011;30771;47.988;-4.186;2023-04-24T01:59:55;21.85;;;5.85;;
45033;SDS011;30771;47.988;-4.186;2023-04-24T02:02:20;21.83;;;5.57;;
45033;SDS011;30771;47.988;-4.186;2023-04-24T02:04:48;22.77;;;5.25;;
45033;SDS011;30771;47.988;-4.186;2023-04-24T02:07:14;22.40;;;4.60;;
45033;SDS011;30771;47.988;-4.186;2023-04-24T02:09:39;17.98;;;5.22;;
45033;SDS011;30771;47.988;-4.186;2023-04-24T02:12:05;19.08;;;5.00;;
45033;SDS011;30771;47.988;-4.186;2023-04-24T02:14:30;22.33;;;4.75;;
45033;SDS011;30771;47.988;-4.186;2023-04-24T02:16:56;21.35;;;5.38;;
45033;SDS011;30771;47.988;-4.186;2023-04-24T02:19:21;19.38;;;4.75;;
45033;SDS011;30771;47.988;-4.186;2023-04-24T02:21:47;16.75;;;4.15;;
45033;SDS011;30771;47.988;-4.186;2023-04-24T02:24:12;29.90;;;5.43;;
45033;SDS011;30771;47.988;-4.186;2023-04-24T02:26:37;21.63;;;5.15;;
45033;SDS011;30771;47.988;-4.186;2023-04-24T02:29:03;26.77;;;4.57;;
45033;SDS011;30771;47.988;-4.186;2023-04-24T02:31:28;23.88;;;4.78;;
45033;SDS011;30771;47.988;-4.186;2023-04-24T02:33:53;19.65;;;4.78;;
45033;SDS011;30771;47.988;-4.186;2023-04-24T02:36:19;19.88;;;5.13;;
45033;SDS011;30771;47.988;-4.186;2023-04-24T02:38:44;29.05;;;5.43;;
45033;SDS011;30771;47.988;-4.186;2023-04-24T02:41:10;26.63;;;4.85;;
45033;SDS011;30771;47.988;-4.186;2023-04-24T02:43:35;22.08;;;5.47;;
45033;SDS011;30771;47.988;-4.186;2023-04-24T02:46:01;20.95;;;4.43;;
45033;SDS011;30771;47.988;-4.186;2023-04-24T02:48:26;19.02;;;5.13;;
45033;SDS011;30771;47.988;-4.186;2023-04-24T02:50:52;21.50;;;4.82;;
45033;SDS011;30771;47.988;-4.186;2023-04-24T02:53:18;21.85;;;5.10;;
45033;SDS011;30771;47.988;-4.186;2023-04-24T02:55:43;22.08;;;4.95;;
45033;SDS011;30771;47.988;-4.186;2023-04-24T02:58:08;25.23;;;4.75;;
45033;SDS011;30771;47.988;-4.186;2023-04-24T03:00:35;23.33;;;4.65;;
45033;SDS011;30771;47.988;-4.186;2023-04-24T03:03:00;26.83;;;4.80;;
45033;SDS011;30771;47.988;-4.186;2023-04-24T03:05:26;17.80;;;4.95;;
45033;SDS011;30771;47.988;-4.186;2023-04-24T03:07:52;19.50;;;4.90;;
45033;SDS011;30771;47.988;-4.186;2023-04-24T03:10:17;23.55;;;4.40;;
45033;SDS011;30771;47.988;-4.186;2023-04-24T03:12:43;18.27;;;5.00;;
45033;SDS011;30771;47.988;-4.186;2023-04-24T03:15:08;25.45;;;5.05;;
45033;SDS011;30771;47.988;-4.186;2023-04-24T03:17:34;26.10;;;4.80;;
45033;SDS011;30771;47.988;-4.186;2023-04-24T03:20:00;21.40;;;4.90;;
45033;SDS011;30771;47.988;-4.186;2023-04-24T03:22:26;23.10;;;4.32;;
45033;SDS011;30771;47.988;-4.186;2023-04-24T03:24:51;21.30;;;4.70;;
45033;SDS011;30771;47.988;-4.186;2023-04-24T03:27:17;24.38;;;5.28;;
45033;SDS011;30771;47.988;-4.186;2023-04-24T03:29:42;22.50;;;4.20;;
45033;SDS011;30771;47.988;-4.186;2023-04-24T03:32:07;19.42;;;4.78;;
45033;SDS011;30771;47.988;-4.186;2023-04-24T03:34:33;24.52;;;4.85;;
45033;SDS011;30771;47.988;-4.186;2023-04-24T03:36:58;22.05;;;4.63;;
45033;SDS011;30771;47.988;-4.186;2023-04-24T03:39:24;24.75;;;4.55;;
45033;SDS011;30771;47.988;-4.186;2023-04-24T03:41:50;26.83;;;4.90;;
45033;SDS011;30771;47.988;-4.186;2023-04-24T03:44:15;26.67;;;5.05;;
45033;SDS011;30771;47.988;-4.186;2023-04-24T03:46:41;24.80;;;4.38;;
45033;SDS011;30771;47.988;-4.186;2023-04-24T03:49:06;27.67;;;5.20;;
45033;SDS011;30771;47.988;-4.186;2023-04-24T03:51:31;19.35;;;4.60;;
45033;SDS011;30771;47.988;-4.186;2023-04-24T03:53:57;27.60;;;5.07;;
45033;SDS011;30771;47.988;-4.186;2023-04-24T03:56:22;27.15;;;5.43;;
45033;SDS011;30771;47.988;-4.186;2023-04-24T03:58:48;33.10;;;5.30;;
45033;SDS011;30771;47.988;-4.186;2023-04-24T04:01:13;30.73;;;5.53;;
45033;SDS011;30771;47.988;-4.186;2023-04-24T04:03:41;27.10;;;4.78;;
45033;SDS011;30771;47.988;-4.186;2023-04-24T04:06:06;27.88;;;5.30;;
45033;SDS011;30771;47.988;-4.186;2023-04-24T04:08:31;25.40;;;4.68;;
45033;SDS011;30771;47.988;-4.186;2023-04-24T04:10:57;27.80;;;5.20;;
45033;SDS011;30771;47.988;-4.186;2023-04-24T04:13:22;26.05;;;4.90;;
45033;SDS011;30771;47.988;-4.186;2023-04-24T04:15:48;23.02;;;4.57;;
45033;SDS011;30771;47.988;-4.186;2023-04-24T04:18:13;24.25;;;4.88;;
45033;SDS011;30771;47.988;-4.186;2023-04-24T04:20:39;36.13;;;6.10;;
45033;SDS011;30771;47.988;-4.186;2023-04-24T04:23:04;26.17;;;5.43;;
45033;SDS011;30771;47.988;-4.186;2023-04-24T04:25:29;24.73;;;4.80;;
45033;SDS011;30771;47.988;-4.186;2023-04-24T04:27:55;24.45;;;4.80;;
45033;SDS011;30771;47.988;-4.186;2023-04-24T04:30:20;31.33;;;4.95;;
45033;SDS011;30771;47.988;-4.186;2023-04-24T04:32:46;31.23;;;4.93;;
45033;SDS011;30771;47.988;-4.186;2023-04-24T04:35:12;25.27;;;5.57;;
45033;SDS011;30771;47.988;-4.186;2023-04-24T04:37:37;24.52;;;4.82;;
45033;SDS011;30771;47.988;-4.186;2023-04-24T04:40:03;31.67;;;5.43;;
45033;SDS011;30771;47.988;-4.186;2023-04-24T04:42:32;26.63;;;5.43;;
45033;SDS011;30771;47.988;-4.186;2023-04-24T04:44:59;21.83;;;5.55;;
45033;SDS011;30771;47.988;-4.186;2023-04-24T04:47:25;24.25;;;5.15;;
45033;SDS011;30771;47.988;-4.186;2023-04-24T04:49:51;26.88;;;4.90;;
45033;SDS011;30771;47.988;-4.186;2023-04-24T04:52:17;21.35;;;5.03;;
45033;SDS011;30771;47.988;-4.186;2023-04-24T04:54:43;21.20;;;4.68;;
45033;SDS011;30771;47.988;-4.186;2023-04-24T04:57:08;21.02;;;4.85;;
45033;SDS011;30771;47.988;-4.186;2023-04-24T04:59:34;23.55;;;4.53;;
45033;SDS011;30771;47.988;-4.186;2023-04-24T05:01:59;21.92;;;4.40;;
45033;SDS011;30771;47.988;-4.186;2023-04-24T05:04:25;22.05;;;4.45;;
45033;SDS011;30771;47.988;-4.186;2023-04-24T05:06:51;22.73;;;4.90;;
45033;SDS011;30771;47.988;-4.186;2023-04-24T05:09:16;25.67;;;4.80;;
45033;SDS011;30771;47.988;-4.186;2023-04-24T05:11:42;28.63;;;4.80;;
45033;SDS011;30771;47.988;-4.186;2023-04-24T05:14:07;25.83;;;5.28;;
45033;SDS011;30771;47.988;-4.186;2023-04-24T05:16:33;18.73;;;4.57;;
45033;SDS011;30771;47.988;-4.186;2023-04-24T05:18:58;11.88;;;4.53;;
45033;SDS011;30771;47.988;-4.186;2023-04-24T05:21:23;28.73;;;5.00;;
45033;SDS011;30771;47.988;-4.186;2023-04-24T05:23:49;21.30;;;5.45;;
45033;SDS011;30771;47.988;-4.186;2023-04-24T05:26:14;27.83;;;4.85;;
45033;SDS011;30771;47.988;-4.186;2023-04-24T05:28:40;19.05;;;5.25;;
45033;SDS011;30771;47.988;-4.186;2023-04-24T05:31:05;25.05;;;5.10;;
45033;SDS011;30771;47.988;-4.186;2023-04-24T05:33:31;20.70;;;4.82;;
45033;SDS011;30771;47.988;-4.186;2023-04-24T05:35:57;25.83;;;5.70;;
45033;SDS011;30771;47.988;-4.186;2023-04-24T05:38:22;18.60;;;4.57;;
45033;SDS011;30771;47.988;-4.186;2023-04-24T05:40:48;21.80;;;4.78;;
45033;SDS011;30771;47.988;-4.186;2023-04-24T05:43:13;16.85;;;4.50;;
45033;SDS011;30771;47.988;-4.186;2023-04-24T05:45:39;22.60;;;4.57;;
45033;SDS011;30771;47.988;-4.186;2023-04-24T05:48:04;20.70;;;4.90;;
45033;SDS011;30771;47.988;-4.186;2023-04-24T05:50:30;25.40;;;5.00;;
45033;SDS011;30771;47.988;-4.186;2023-04-24T05:52:56;27.38;;;4.88;;
45033;SDS011;30771;47.988;-4.186;2023-04-24T05:55:23;19.25;;;4.53;;
45033;SDS011;30771;47.988;-4.186;2023-04-24T05:57:49;34.65;;;5.47;;
45033;SDS011;30771;47.988;-4.186;2023-04-24T06:00:15;22.95;;;4.50;;
45033;SDS011;30771;47.988;-4.186;2023-04-24T06:02:40;20.27;;;4.55;;
45033;SDS011;30771;47.988;-4.186;2023-04-24T06:05:06;16.45;;;4.18;;
45033;SDS011;30771;47.988;-4.186;2023-04-24T06:07:33;17.73;;;5.18;;
45033;SDS011;30771;47.988;-4.186;2023-04-24T06:09:59;20.42;;;5.35;;
45033;SDS011;30771;47.988;-4.186;2023-04-24T06:12:25;15.60;;;4.63;;
45033;SDS011;30771;47.988;-4.186;2023-04-24T06:14:51;17.98;;;4.90;;
45033;SDS011;30771;47.988;-4.186;2023-04-24T06:17:16;17.88;;;4.47;;
45033;SDS011;30771;47.988;-4.186;2023-04-24T06:19:41;18.90;;;5.03;;
45033;SDS011;30771;47.988;-4.186;2023-04-24T06:22:07;17.58;;;5.20;;
45033;SDS011;30771;47.988;-4.186;2023-04-24T06:24:33;17.67;;;5.00;;
45033;SDS011;30771;47.988;-4.186;2023-04-24T06:26:59;33.50;;;5.85;;
45033;SDS011;30771;47.988;-4.186;2023-04-24T06:29:25;22.48;;;5.03;;
45033;SDS011;30771;47.988;-4.186;2023-04-24T06:31:50;16.02;;;5.13;;
45033;SDS011;30771;47.988;-4.186;2023-04-24T06:34:16;19.02;;;4.78;;
45033;SDS011;30771;47.988;-4.186;2023-04-24T06:36:41;17.02;;;4.13;;
45033;SDS011;30771;47.988;-4.186;2023-04-24T06:39:07;17.30;;;4.95;;
45033;SDS011;30771;47.988;-4.186;2023-04-24T06:41:32;20.73;;;4.95;;
45033;SDS011;30771;47.988;-4.186;2023-04-24T06:43:57;14.20;;;4.20;;
45033;SDS011;30771;47.988;-4.186;2023-04-24T06:46:23;21.92;;;5.13;;
45033;SDS011;30771;47.988;-4.186;2023-04-24T06:48:51;21.08;;;4.53;;
45033;SDS011;30771;47.988;-4.186;2023-04-24T06:51:17;13.15;;;3.97;;
45033;SDS011;30771;47.988;-4.186;2023-04-24T06:53:43;17.88;;;5.13;;
45033;SDS011;30771;47.988;-4.186;2023-04-24T06:56:08;21.60;;;4.80;;
45033;SDS011;30771;47.988;-4.186;2023-04-24T06:58:34;20.35;;;4.63;;
45033;SDS011;30771;47.988;-4.186;2023-04-24T07:00:59;17.95;;;4.75;;
45033;SDS011;30771;47.988;-4.186;2023-04-24T07:03:25;17.83;;;4.68;;
45033;SDS011;30771;47.988;-4.186;2023-04-24T07:05:50;20.30;;;4.43;;
45033;SDS011;30771;47.988;-4.186;2023-04-24T07:08:16;19.67;;;4.25;;
45033;SDS011;30771;47.988;-4.186;2023-04-24T07:10:43;22.25;;;4.85;;
45033;SDS011;30771;47.988;-4.186;2023-04-24T07:13:09;27.98;;;4.80;;
45033;SDS011;30771;47.988;-4.186;2023-04-24T07:15:34;15.90;;;4.45;;
45033;SDS011;30771;47.988;-4.186;2023-04-24T07:18:00;22.92;;;4.60;;
45033;SDS011;30771;47.988;-4.186;2023-04-24T07:20:25;18.15;;;4.20;;
45033;SDS011;30771;47.988;-4.186;2023-04-24T07:22:51;21.90;;;5.20;;
45033;SDS011;30771;47.988;-4.186;2023-04-24T07:25:18;17.02;;;4.68;;
45033;SDS011;30771;47.988;-4.186;2023-04-24T07:27:44;13.77;;;3.97;;
45033;SDS011;30771;47.988;-4.186;2023-04-24T07:30:09;28.48;;;4.45;;
45033;SDS011;30771;47.988;-4.186;2023-04-24T07:32:35;15.90;;;4.47;;
45033;SDS011;30771;47.988;-4.186;2023-04-24T07:35:01;11.70;;;4.35;;
45033;SDS011;30771;47.988;-4.186;2023-04-24T07:37:26;17.13;;;4.50;;
45033;SDS011;30771;47.988;-4.186;2023-04-24T07:39:53;17.83;;;4.82;;
45033;SDS011;30771;47.988;-4.186;2023-04-24T07:42:18;22.75;;;4.75;;
45033;SDS011;30771;47.988;-4.186;2023-04-24T07:44:43;16.17;;;4.60;;
45033;SDS011;30771;47.988;-4.186;2023-04-24T07:47:09;18.60;;;6.00;;
45033;SDS011;30771;47.988;-4.186;2023-04-24T07:49:34;21.48;;;4.65;;
45033;SDS011;30771;47.988;-4.186;2023-04-24T07:52:00;18.45;;;5.07;;
45033;SDS011;30771;47.988;-4.186;2023-04-24T07:54:27;21.58;;;4.18;;
45033;SDS011;30771;47.988;-4.186;2023-04-24T07:56:53;22.55;;;4.35;;
45033;SDS011;30771;47.988;-4.186;2023-04-24T07:59:19;20.02;;;4.40;;
45033;SDS011;30771;47.988;-4.186;2023-04-24T08:01:44;25.63;;;4.53;;
45033;SDS011;30771;47.988;-4.186;2023-04-24T08:04:09;24.02;;;4.57;;
45033;SDS011;30771;47.988;-4.186;2023-04-24T08:06:35;20.25;;;5.15;;
45033;SDS011;30771;47.988;-4.186;2023-04-24T08:09:00;25.15;;;4.95;;
45033;SDS011;30771;47.988;-4.186;2023-04-24T08:11:26;18.73;;;4.88;;
45033;SDS011;30771;47.988;-4.186;2023-04-24T08:13:51;23.00;;;4.43;;
45033;SDS011;30771;47.988;-4.186;2023-04-24T08:16:17;22.90;;;4.80;;
45033;SDS011;30771;47.988;-4.186;2023-04-24T08:18:42;24.75;;;4.95;;
45033;SDS011;30771;47.988;-4.186;2023-04-24T08:21:07;23.52;;;4.32;;
45033;SDS011;30771;47.988;-4.186;2023-04-24T08:23:33;17.02;;;4.88;;
45033;SDS011;30771;47.988;-4.186;2023-04-24T08:25:58;22.35;;;4.57;;
45033;SDS011;30771;47.988;-4.186;2023-04-24T08:28:24;20.20;;;4.05;;
45033;SDS011;30771;47.988;-4.186;2023-04-24T08:30:50;21.77;;;4.50;;
45033;SDS011;30771;47.988;-4.186;2023-04-24T08:33:22;15.38;;;4.20;;
45033;SDS011;30771;47.988;-4.186;2023-04-24T08:35:48;19.58;;;4.22;;
45033;SDS011;30771;47.988;-4.186;2023-04-24T08:38:14;21.73;;;4.22;;
45033;SDS011;30771;47.988;-4.186;2023-04-24T08:40:40;20.45;;;3.60;;
45033;SDS011;30771;47.988;-4.186;2023-04-24T08:43:06;19.88;;;4.20;;
45033;SDS011;30771;47.988;-4.186;2023-04-24T08:45:32;19.45;;;4.00;;
45033;SDS011;30771;47.988;-4.186;2023-04-24T08:47:58;19.17;;;4.28;;
45033;SDS011;30771;47.988;-4.186;2023-04-24T08:50:25;22.77;;;4.35;;
45033;SDS011;30771;47.988;-4.186;2023-04-24T08:52:51;16.83;;;4.15;;
45033;SDS011;30771;47.988;-4.186;2023-04-24T08:55:22;20.60;;;4.10;;
45033;SDS011;30771;47.988;-4.186;2023-04-24T09:00:18;15.25;;;3.28;;
45033;SDS011;30771;47.988;-4.186;2023-04-24T09:02:45;16.00;;;3.90;;
45033;SDS011;30771;47.988;-4.186;2023-04-24T09:05:14;15.15;;;3.05;;
45033;SDS011;30771;47.988;-4.186;2023-04-24T09:07:43;24.95;;;4.18;;
45033;SDS011;30771;47.988;-4.186;2023-04-24T09:10:11;21.52;;;4.03;;
45033;SDS011;30771;47.988;-4.186;2023-04-24T09:12:36;16.98;;;3.00;;
45033;SDS011;30771;47.988;-4.186;2023-04-24T09:15:02;16.27;;;3.80;;
45033;SDS011;30771;47.988;-4.186;2023-04-24T09:17:30;17.25;;;3.80;;
45033;SDS011;30771;47.988;-4.186;2023-04-24T09:19:56;16.20;;;2.95;;
45033;SDS011;30771;47.988;-4.186;2023-04-24T09:22:21;13.23;;;3.13;;
45033;SDS011;30771;47.988;-4.186;2023-04-24T09:24:47;16.17;;;3.33;;
45033;SDS011;30771;47.988;-4.186;2023-04-24T09:27:13;17.52;;;3.70;;
45033;SDS011;30771;47.988;-4.186;2023-04-24T09:29:47;10.02;;;2.45;;
45033;SDS011;30771;47.988;-4.186;2023-04-24T09:32:19;9.10;;;2.40;;
45033;SDS011;30771;47.988;-4.186;2023-04-24T09:35:04;14.07;;;2.83;;
45033;SDS011;30771;47.988;-4.186;2023-04-24T09:37:34;11.00;;;2.97;;
45033;SDS011;30771;47.988;-4.186;2023-04-24T09:42:32;17.60;;;3.50;;
45033;SDS011;30771;47.988;-4.186;2023-04-24T09:44:58;25.05;;;3.20;;
45033;SDS011;30771;47.988;-4.186;2023-04-24T09:47:23;17.25;;;3.95;;
45033;SDS011;30771;47.988;-4.186;2023-04-24T09:49:49;21.35;;;3.42;;
45033;SDS011;30771;47.988;-4.186;2023-04-24T09:52:14;21.35;;;3.53;;
45033;SDS011;30771;47.988;-4.186;2023-04-24T09:54:40;15.65;;;3.28;;
45033;SDS011;30771;47.988;-4.186;2023-04-24T09:57:08;22.27;;;3.78;;
45033;SDS011;30771;47.988;-4.186;2023-04-24T09:59:34;13.75;;;3.00;;
45033;SDS011;30771;47.988;-4.186;2023-04-24T10:02:00;15.73;;;3.10;;
45033;SDS011;30771;47.988;-4.186;2023-04-24T10:04:26;21.30;;;2.78;;
45033;SDS011;30771;47.988;-4.186;2023-04-24T10:06:53;17.60;;;2.83;;
45033;SDS011;30771;47.988;-4.186;2023-04-24T10:09:21;16.10;;;3.35;;
45033;SDS011;30771;47.988;-4.186;2023-04-24T10:11:50;17.75;;;3.55;;
45033;SDS011;30771;47.988;-4.186;2023-04-24T10:14:17;16.88;;;3.00;;
45033;SDS011;30771;47.988;-4.186;2023-04-24T10:16:45;19.33;;;3.67;;
45033;SDS011;30771;47.988;-4.186;2023-04-24T10:19:12;12.63;;;2.45;;
45033;SDS011;30771;47.988;-4.186;2023-04-24T10:21:39;15.98;;;2.83;;
45033;SDS011;30771;47.988;-4.186;2023-04-24T10:24:15;16.35;;;2.92;;
45033;SDS011;30771;47.988;-4.186;2023-04-24T10:26:46;13.57;;;3.13;;
45033;SDS011;30771;47.988;-4.186;2023-04-24T10:29:14;12.70;;;2.53;;
45033;SDS011;30771;47.988;-4.186;2023-04-24T10:31:40;16.33;;;2.58;;
45033;SDS011;30771;47.988;-4.186;2023-04-24T10:34:06;9.23;;;2.85;;
45033;SDS011;30771;47.988;-4.186;2023-04-24T10:36:33;11.40;;;2.65;;
45033;SDS011;30771;47.988;-4.186;2023-04-24T10:39:01;13.80;;;2.78;;
45033;SDS011;30771;47.988;-4.186;2023-04-24T10:41:30;19.23;;;3.80;;
45033;SDS011;30771;47.988;-4.186;2023-04-24T10:44:09;13.27;;;3.17;;
45033;SDS011;30771;47.988;-4.186;2023-04-24T10:46:35;16.15;;;2.75;;
45033;SDS011;30771;47.988;-4.186;2023-04-24T10:49:04;16.85;;;3.25;;
45033;SDS011;30771;47.988;-4.186;2023-04-24T10:59:43;15.85;;;2.38;;
45033;SDS011;30771;47.988;-4.186;2023-04-24T11:02:09;14.68;;;2.60;;
45033;SDS011;30771;47.988;-4.186;2023-04-24T11:04:35;15.65;;;2.65;;
45033;SDS011;30771;47.988;-4.186;2023-04-24T11:07:00;16.67;;;4.07;;
45033;SDS011;30771;47.988;-4.186;2023-04-24T11:09:27;10.70;;;3.22;;
45033;SDS011;30771;47.988;-4.186;2023-04-24T11:17:35;11.75;;;2.83;;
45033;SDS011;30771;47.988;-4.186;2023-04-24T11:20:16;16.05;;;2.80;;
45033;SDS011;30771;47.988;-4.186;2023-04-24T11:22:42;10.13;;;2.60;;
45033;SDS011;30771;47.988;-4.186;2023-04-24T11:25:08;17.92;;;2.80;;
45033;SDS011;30771;47.988;-4.186;2023-04-24T11:27:43;15.43;;;2.67;;
45033;SDS011;30771;47.988;-4.186;2023-04-24T11:30:16;12.75;;;2.55;;
45033;SDS011;30771;47.988;-4.186;2023-04-24T11:32:43;12.93;;;2.95;;
45033;SDS011;30771;47.988;-4.186;2023-04-24T11:35:15;19.20;;;3.10;;
45033;SDS011;30771;47.988;-4.186;2023-04-24T11:37:42;15.65;;;3.83;;
45033;SDS011;30771;47.988;-4.186;2023-04-24T11:42:38;20.70;;;3.08;;
45033;SDS011;30771;47.988;-4.186;2023-04-24T11:47:37;10.10;;;2.20;;
45033;SDS011;30771;47.988;-4.186;2023-04-24T11:50:04;10.05;;;2.00;;
45033;SDS011;30771;47.988;-4.186;2023-04-24T11:52:31;11.20;;;2.25;;
45033;SDS011;30771;47.988;-4.186;2023-04-24T11:54:56;11.20;;;2.72;;
45033;SDS011;30771;47.988;-4.186;2023-04-24T11:57:24;10.32;;;2.20;;
45033;SDS011;30771;47.988;-4.186;2023-04-24T11:59:52;9.98;;;2.03;;
45033;SDS011;30771;47.988;-4.186;2023-04-24T12:02:21;8.07;;;2.00;;
45033;SDS011;30771;47.988;-4.186;2023-04-24T12:04:51;10.32;;;2.67;;
45033;SDS011;30771;47.988;-4.186;2023-04-24T12:07:17;8.70;;;2.60;;
45033;SDS011;30771;47.988;-4.186;2023-04-24T12:10:04;11.63;;;2.55;;
45033;SDS011;30771;47.988;-4.186;2023-04-24T12:12:30;12.88;;;2.03;;
45033;SDS011;30771;47.988;-4.186;2023-04-24T12:14:56;7.10;;;1.70;;
45033;SDS011;30771;47.988;-4.186;2023-04-24T12:17:24;20.40;;;3.95;;
45033;SDS011;30771;47.988;-4.186;2023-04-24T12:20:00;15.57;;;4.10;;
45033;SDS011;30771;47.988;-4.186;2023-04-24T12:22:28;30.73;;;4.72;;
45033;SDS011;30771;47.988;-4.186;2023-04-24T12:25:09;14.32;;;3.40;;
45033;SDS011;30771;47.988;-4.186;2023-04-24T12:27:35;16.40;;;3.95;;
45033;SDS011;30771;47.988;-4.186;2023-04-24T12:30:02;12.82;;;3.90;;
45033;SDS011;30771;47.988;-4.186;2023-04-24T12:32:30;20.35;;;4.32;;
45033;SDS011;30771;47.988;-4.186;2023-04-24T12:34:56;18.40;;;3.65;;
45033;SDS011;30771;47.988;-4.186;2023-04-24T12:37:23;15.68;;;3.08;;
45033;SDS011;30771;47.988;-4.186;2023-04-24T12:40:04;14.45;;;2.75;;
45033;SDS011;30771;47.988;-4.186;2023-04-24T12:42:45;12.18;;;3.25;;
45033;SDS011;30771;47.988;-4.186;2023-04-24T12:45:13;12.48;;;3.40;;
45033;SDS011;30771;47.988;-4.186;2023-04-24T12:47:40;8.13;;;2.40;;
45033;SDS011;30771;47.988;-4.186;2023-04-24T12:50:07;6.00;;;1.65;;
45033;SDS011;30771;47.988;-4.186;2023-04-24T12:52:34;7.30;;;2.03;;
45033;SDS011;30771;47.988;-4.186;2023-04-24T12:55:00;6.38;;;1.65;;
45033;SDS011;30771;47.988;-4.186;2023-04-24T12:57:27;8.50;;;2.35;;
45033;SDS011;30771;47.988;-4.186;2023-04-24T12:59:56;11.05;;;2.22;;
45033;SDS011;30771;47.988;-4.186;2023-04-24T13:02:23;9.18;;;1.90;;
45033;SDS011;30771;47.988;-4.186;2023-04-24T13:04:49;7.95;;;2.25;;
45033;SDS011;30771;47.988;-4.186;2023-04-24T13:07:15;9.95;;;2.08;;
45033;SDS011;30771;47.988;-4.186;2023-04-24T13:09:44;10.70;;;2.40;;
45033;SDS011;30771;47.988;-4.186;2023-04-24T13:12:10;6.10;;;2.08;;
45033;SDS011;30771;47.988;-4.186;2023-04-24T13:14:36;9.27;;;2.10;;
45033;SDS011;30771;47.988;-4.186;2023-04-24T13:17:02;9.00;;;1.90;;
45033;SDS011;30771;47.988;-4.186;2023-04-24T13:19:28;11.15;;;1.92;;
45033;SDS011;30771;47.988;-4.186;2023-04-24T13:21:54;9.25;;;2.00;;
45033;SDS011;30771;47.988;-4.186;2023-04-24T13:24:21;9.00;;;1.83;;
45033;SDS011;30771;47.988;-4.186;2023-04-24T13:26:51;9.80;;;2.05;;
45033;SDS011;30771;47.988;-4.186;2023-04-24T13:29:17;8.27;;;1.90;;
45033;SDS011;30771;47.988;-4.186;2023-04-24T13:31:43;12.30;;;2.40;;
45033;SDS011;30771;47.988;-4.186;2023-04-24T13:34:08;12.15;;;2.08;;
45033;SDS011;30771;47.988;-4.186;2023-04-24T13:36:34;8.02;;;1.98;;
45033;SDS011;30771;47.988;-4.186;2023-04-24T13:39:00;8.05;;;2.03;;
45033;SDS011;30771;47.988;-4.186;2023-04-24T13:41:25;14.52;;;2.22;;
45033;SDS011;30771;47.988;-4.186;2023-04-24T13:43:51;12.15;;;2.38;;
45033;SDS011;30771;47.988;-4.186;2023-04-24T13:46:16;10.48;;;2.30;;
45033;SDS011;30771;47.988;-4.186;2023-04-24T13:48:41;13.07;;;2.60;;
45033;SDS011;30771;47.988;-4.186;2023-04-24T13:51:07;13.50;;;2.28;;
45033;SDS011;30771;47.988;-4.186;2023-04-24T13:53:32;15.63;;;2.58;;
45033;SDS011;30771;47.988;-4.186;2023-04-24T13:56:01;11.77;;;2.20;;
45033;SDS011;30771;47.988;-4.186;2023-04-24T13:58:27;10.40;;;2.50;;
45033;SDS011;30771;47.988;-4.186;2023-04-24T14:00:52;11.35;;;2.40;;
45033;SDS011;30771;47.988;-4.186;2023-04-24T14:03:18;10.52;;;2.25;;
45033;SDS011;30771;47.988;-4.186;2023-04-24T14:05:43;12.35;;;2.50;;
45033;SDS011;30771;47.988;-4.186;2023-04-24T14:08:08;12.73;;;2.80;;
45033;SDS011;30771;47.988;-4.186;2023-04-24T14:10:34;13.80;;;2.50;;
45033;SDS011;30771;47.988;-4.186;2023-04-24T14:13:00;20.88;;;2.90;;
45033;SDS011;30771;47.988;-4.186;2023-04-24T14:15:25;11.75;;;2.63;;
45033;SDS011;30771;47.988;-4.186;2023-04-24T14:17:51;12.75;;;2.17;;
45033;SDS011;30771;47.988;-4.186;2023-04-24T14:20:16;12.60;;;2.83;;
45033;SDS011;30771;47.988;-4.186;2023-04-24T14:22:42;11.45;;;2.47;;
45033;SDS011;30771;47.988;-4.186;2023-04-24T14:25:09;9.68;;;2.92;;
45033;SDS011;30771;47.988;-4.186;2023-04-24T14:27:34;13.40;;;2.80;;
45033;SDS011;30771;47.988;-4.186;2023-04-24T14:30:00;15.02;;;2.38;;
45033;SDS011;30771;47.988;-4.186;2023-04-24T14:32:26;11.15;;;2.67;;
45033;SDS011;30771;47.988;-4.186;2023-04-24T14:34:51;14.52;;;2.28;;
45033;SDS011;30771;47.988;-4.186;2023-04-24T14:37:17;13.75;;;2.53;;
45033;SDS011;30771;47.988;-4.186;2023-04-24T14:39:42;10.85;;;2.28;;
45033;SDS011;30771;47.988;-4.186;2023-04-24T14:42:07;12.18;;;2.47;;